Kareela Spirit — C6QJ9 — position and weather

sailwx.info

Track history (hours):
 
Tides and Currents Weather Stations Pressure Air Temp Water Temp Dewpoint Dewpoint Depression Visibility Wind Speed Wind Dir Waves Ship Positions

Kareela Spirit

Last reported at 2017-Nov-17 11:16 UTC. Time now 2017-Nov-21 02:29 UTC.
Position N 01°15' E 104°04'.

Length 249 m; draft 8.2 m.

Type: Tanker. MMSI: 308731000.

Date/timePositionNaut miles runAvg speedWind from/ knotsBaromVisibWave heightAir tempDewpointWater temp
2017-Nov-17 11:16N 01°15' E 104°04'512.0
2017-Nov-17 10:50N 01°14' E 103°59'412.2
2017-Nov-17 10:31N 01°13' E 103°55'612.7
2017-Nov-17 10:01N 01°10' E 103°49'612.4
2017-Nov-17 09:30N 01°06' E 103°45'612.8
2017-Nov-17 09:01N 01°03' E 103°39'611.3
2017-Nov-17 08:30N 01°05' E 103°34'610.5
2017-Nov-17 07:54N 01°11' E 103°31'511.3
2017-Nov-17 07:30N 01°15' E 103°32'5 9.9
2017-Nov-17 06:59N 01°20' E 103°33'  
2017-Nov-14 15:55N 01°21' E 103°33'0 1.1
2017-Nov-14 15:30N 01°21' E 103°33'2 4.6
2017-Nov-14 14:59N 01°18' E 103°33'4 7.6
2017-Nov-14 14:30N 01°15' E 103°32'2 4.8
2017-Nov-14 13:59N 01°14' E 103°30'4 7.3
2017-Nov-14 13:28N 01°15' E 103°26'1 2.8
2017-Nov-14 13:00N 01°16' E 103°26'0 0.9
2017-Nov-14 12:29N 01°16' E 103°25'1 0.6
2017-Nov-14 11:25N 01°17' E 103°25'0 0.0
2017-Nov-14 07:10N 01°17' E 103°25'0 0.1
2017-Nov-14 06:52N 01°17' E 103°25'1 0.0
2017-Nov-13 01:48N 01°16' E 103°25'1 2.9
2017-Nov-13 01:30N 01°16' E 103°26'3 5.4
2017-Nov-13 00:59N 01°14' E 103°28'3 6.2
2017-Nov-13 00:30N 01°11' E 103°28'4 6.9
2017-Nov-12 23:58N 01°11' E 103°25'  
Track history (hours):
 
Tides and Currents Weather Stations Pressure Air Temp Water Temp Dewpoint Dewpoint Depression Visibility Wind Speed Wind Dir Waves Ship Positions

Kareela Spirit

Last reported at 2017-Nov-17 11:16 UTC. Time now 2017-Nov-21 02:29 UTC.
Position N 01°15' E 104°04'.

Length 249 m; draft 8.2 m.

Type: Tanker. MMSI: 308731000.

Date/timePositionNaut miles runAvg speedWind from/ knotsBaromVisibWave heightAir tempDewpointWater temp
2017-Nov-17 11:16N 01°15' E 104°04'512.0
2017-Nov-17 10:50N 01°14' E 103°59'412.2
2017-Nov-17 10:31N 01°13' E 103°55'612.7
2017-Nov-17 10:01N 01°10' E 103°49'612.4
2017-Nov-17 09:30N 01°06' E 103°45'612.8
2017-Nov-17 09:01N 01°03' E 103°39'611.3
2017-Nov-17 08:30N 01°05' E 103°34'610.5
2017-Nov-17 07:54N 01°11' E 103°31'511.3
2017-Nov-17 07:30N 01°15' E 103°32'5 9.9
2017-Nov-17 06:59N 01°20' E 103°33'  
2017-Nov-14 15:55N 01°21' E 103°33'0 1.1
2017-Nov-14 15:30N 01°21' E 103°33'2 4.6
2017-Nov-14 14:59N 01°18' E 103°33'4 7.6
2017-Nov-14 14:30N 01°15' E 103°32'2 4.8
2017-Nov-14 13:59N 01°14' E 103°30'4 7.3
2017-Nov-14 13:28N 01°15' E 103°26'1 2.8
2017-Nov-14 13:00N 01°16' E 103°26'0 0.9
2017-Nov-14 12:29N 01°16' E 103°25'1 0.6
2017-Nov-14 11:25N 01°17' E 103°25'0 0.0
2017-Nov-14 07:10N 01°17' E 103°25'0 0.1
2017-Nov-14 06:52N 01°17' E 103°25'1 0.0
2017-Nov-13 01:48N 01°16' E 103°25'1 2.9
2017-Nov-13 01:30N 01°16' E 103°26'3 5.4
2017-Nov-13 00:59N 01°14' E 103°28'3 6.2
2017-Nov-13 00:30N 01°11' E 103°28'4 6.9
2017-Nov-12 23:58N 01°11' E 103°25'  

Dump ship's entire track history